createdAt,value
2018-06-28T00:00:07.657Z,1017.30
2018-06-28T00:00:54.885Z,1017.28
2018-06-28T00:03:05.267Z,1017.26
2018-06-28T00:04:01.589Z,1017.26
2018-06-28T00:05:55.787Z,1017.22
2018-06-28T00:06:55.080Z,1017.24
2018-06-28T00:07:55.160Z,1017.24
2018-06-28T00:08:55.035Z,1017.25
2018-06-28T00:09:55.100Z,1017.26
2018-06-28T00:10:56.172Z,1017.26
2018-06-28T00:11:55.030Z,1017.26
2018-06-28T00:12:55.045Z,1017.27
2018-06-28T00:14:54.958Z,1017.25
2018-06-28T00:15:54.999Z,1017.28
2018-06-28T00:16:55.055Z,1017.29
2018-06-28T00:17:55.126Z,1017.27
2018-06-28T00:18:56.666Z,1017.24
2018-06-28T00:19:55.081Z,1017.30
2018-06-28T00:20:55.060Z,1017.25
2018-06-28T00:22:57.684Z,1017.27
2018-06-28T00:23:55.006Z,1017.26
2018-06-28T00:24:54.826Z,1017.25
2018-06-28T00:25:57.615Z,1017.27
2018-06-28T00:26:55.036Z,1017.26
2018-06-28T00:27:54.964Z,1017.28
2018-06-28T00:28:54.846Z,1017.26
2018-06-28T00:29:54.840Z,1017.25
2018-06-28T00:30:55.006Z,1017.25
2018-06-28T00:31:54.996Z,1017.22
2018-06-28T00:32:54.788Z,1017.19
2018-06-28T00:33:54.787Z,1017.16
2018-06-28T00:34:56.746Z,1017.16
2018-06-28T00:35:54.831Z,1017.26
2018-06-28T00:36:56.708Z,1017.24
2018-06-28T00:37:54.672Z,1017.26
2018-06-28T00:38:57.149Z,1017.26
2018-06-28T00:39:55.344Z,1017.25
2018-06-28T00:40:54.782Z,1017.25
2018-06-28T00:41:54.923Z,1017.25
2018-06-28T00:42:54.780Z,1017.24
2018-06-28T00:43:54.805Z,1017.23
2018-06-28T00:44:54.879Z,1017.24
2018-06-28T00:45:54.770Z,1017.22
2018-06-28T00:46:54.804Z,1017.26
2018-06-28T00:47:54.738Z,1017.24
2018-06-28T00:48:54.822Z,1017.26
2018-06-28T00:49:54.751Z,1017.26
2018-06-28T00:50:54.758Z,1017.28
2018-06-28T00:51:55.225Z,1017.30
2018-06-28T00:52:54.710Z,1017.26
2018-06-28T00:53:54.729Z,1017.30
2018-06-28T00:55:54.763Z,1017.28
2018-06-28T00:56:54.683Z,1017.22
2018-06-28T00:57:54.715Z,1017.24
2018-06-28T00:58:54.609Z,1017.24
2018-06-28T00:59:56.117Z,1017.25
2018-06-28T01:00:54.709Z,1017.25
2018-06-28T01:01:54.654Z,1017.25
2018-06-28T01:02:54.682Z,1017.25
2018-06-28T01:03:54.666Z,1017.25
2018-06-28T01:05:54.492Z,1017.26
2018-06-28T01:07:54.502Z,1017.29
2018-06-28T01:08:54.592Z,1017.26
2018-06-28T01:09:54.574Z,1017.27
2018-06-28T01:10:54.415Z,1017.27
2018-06-28T01:11:54.480Z,1017.31
2018-06-28T01:12:54.414Z,1017.27
2018-06-28T01:13:54.577Z,1017.31
2018-06-28T01:14:57.220Z,1017.34
2018-06-28T01:15:54.420Z,1017.34
2018-06-28T01:16:54.268Z,1017.33
2018-06-28T01:17:57.115Z,1017.34
2018-06-28T01:18:54.480Z,1017.28
2018-06-28T01:19:54.455Z,1017.31
2018-06-28T01:21:54.509Z,1017.26
2018-06-28T01:22:54.494Z,1017.27
2018-06-28T01:23:54.390Z,1017.28
2018-06-28T01:24:56.083Z,1017.28
2018-06-28T01:25:54.364Z,1017.25
2018-06-28T01:26:54.449Z,1017.26
2018-06-28T01:27:54.535Z,1017.24
2018-06-28T01:28:54.386Z,1017.25
2018-06-28T01:29:54.175Z,1017.19
2018-06-28T01:30:56.762Z,1017.21
2018-06-28T01:31:54.389Z,1017.22
2018-06-28T01:32:54.419Z,1017.21
2018-06-28T01:34:54.260Z,1017.20
2018-06-28T01:35:54.360Z,1017.21
2018-06-28T01:36:54.380Z,1017.19
2018-06-28T01:37:54.835Z,1017.15
2018-06-28T01:38:54.249Z,1017.22
2018-06-28T01:39:56.252Z,1017.21
2018-06-28T01:40:54.354Z,1017.26
2018-06-28T01:41:54.247Z,1017.28
2018-06-28T01:42:56.156Z,1017.31
2018-06-28T01:43:56.159Z,1017.30
2018-06-28T01:44:54.303Z,1017.33
2018-06-28T01:45:54.302Z,1017.30
2018-06-28T01:46:54.337Z,1017.33
2018-06-28T01:47:54.278Z,1017.32
2018-06-28T01:48:54.152Z,1017.30
2018-06-28T01:49:54.143Z,1017.31
2018-06-28T01:50:54.244Z,1017.34
2018-06-28T01:51:56.716Z,1017.29
2018-06-28T01:52:54.273Z,1017.32
2018-06-28T01:53:55.669Z,1017.27
2018-06-28T01:54:54.254Z,1017.26
2018-06-28T01:55:54.217Z,1017.27
2018-06-28T01:56:54.142Z,1017.27
2018-06-28T01:57:54.148Z,1017.28
2018-06-28T01:58:54.167Z,1017.32
2018-06-28T01:59:53.967Z,1017.27
2018-06-28T02:00:54.085Z,1017.28
2018-06-28T02:01:54.158Z,1017.26
2018-06-28T02:03:54.091Z,1017.26
2018-06-28T02:04:54.116Z,1017.25
2018-06-28T02:06:53.918Z,1017.29
2018-06-28T02:07:55.644Z,1017.30
2018-06-28T02:08:54.021Z,1017.32
2018-06-28T02:09:54.097Z,1017.32
2018-06-28T02:10:53.931Z,1017.31
2018-06-28T02:11:54.039Z,1017.31
2018-06-28T02:12:53.997Z,1017.31
2018-06-28T02:13:54.083Z,1017.33
2018-06-28T02:14:55.665Z,1017.32
2018-06-28T02:15:55.620Z,1017.30
2018-06-28T02:16:56.737Z,1017.29
2018-06-28T02:17:55.695Z,1017.28
2018-06-28T02:18:54.001Z,1017.33
2018-06-28T02:19:55.637Z,1017.26
2018-06-28T02:20:53.873Z,1017.27
2018-06-28T02:21:56.258Z,1017.27
2018-06-28T02:22:53.916Z,1017.24
2018-06-28T02:23:53.841Z,1017.24
2018-06-28T02:24:53.811Z,1017.24
2018-06-28T02:25:53.900Z,1017.24
2018-06-28T02:26:53.949Z,1017.23
2018-06-28T02:27:53.819Z,1017.21
2018-06-28T02:28:53.832Z,1017.22
2018-06-28T02:29:53.709Z,1017.26
2018-06-28T02:30:53.773Z,1017.26
2018-06-28T02:31:53.826Z,1017.23
2018-06-28T02:32:56.146Z,1017.23
2018-06-28T02:33:53.783Z,1017.28
2018-06-28T02:34:53.738Z,1017.29
2018-06-28T02:35:53.791Z,1017.31
2018-06-28T02:36:53.746Z,1017.29
2018-06-28T02:38:54.844Z,1017.30
2018-06-28T02:39:53.700Z,1017.28
2018-06-28T02:40:53.668Z,1017.27
2018-06-28T02:41:53.623Z,1017.34
2018-06-28T02:42:53.671Z,1017.29
2018-06-28T02:43:55.327Z,1017.29
2018-06-28T02:45:53.732Z,1017.30
2018-06-28T02:46:53.579Z,1017.31
2018-06-28T02:47:53.677Z,1017.31
2018-06-28T02:48:53.600Z,1017.32
2018-06-28T02:49:53.660Z,1017.32
2018-06-28T02:50:56.321Z,1017.32
2018-06-28T02:51:53.627Z,1017.33
2018-06-28T02:52:55.286Z,1017.30
2018-06-28T02:53:53.617Z,1017.30
2018-06-28T02:54:53.693Z,1017.31
2018-06-28T02:55:53.648Z,1017.27
2018-06-28T02:57:53.491Z,1017.29
2018-06-28T02:58:55.241Z,1017.28
2018-06-28T02:59:53.610Z,1017.28
2018-06-28T03:00:53.644Z,1017.25
2018-06-28T03:01:53.558Z,1017.27
2018-06-28T03:02:53.638Z,1017.28
2018-06-28T03:03:53.369Z,1017.30
2018-06-28T03:04:53.566Z,1017.28
2018-06-28T03:05:53.472Z,1017.30
2018-06-28T03:06:53.447Z,1017.28
2018-06-28T03:07:53.485Z,1017.26
2018-06-28T03:08:53.390Z,1017.25
2018-06-28T03:09:53.472Z,1017.28
2018-06-28T03:10:53.467Z,1017.24
2018-06-28T03:11:53.370Z,1017.25
2018-06-28T03:12:53.371Z,1017.23
2018-06-28T03:13:53.480Z,1017.24
2018-06-28T03:14:53.460Z,1017.24
2018-06-28T03:15:53.390Z,1017.27
2018-06-28T03:16:55.703Z,1017.25
2018-06-28T03:18:55.275Z,1017.21
2018-06-28T03:19:53.317Z,1017.14
2018-06-28T03:20:53.267Z,1017.15
2018-06-28T03:21:53.440Z,1017.11
2018-06-28T03:22:53.432Z,1017.10
2018-06-28T03:23:53.310Z,1017.11
2018-06-28T03:28:22.222Z,1017.06
2018-06-28T03:29:06.195Z,1017.02
2018-06-28T03:31:07.180Z,1017.01
2018-06-28T03:32:00.046Z,1016.99
2018-06-28T03:33:52.470Z,1016.97
2018-06-28T03:34:51.874Z,1016.97
2018-06-28T03:36:58.768Z,1016.93
2018-06-28T03:37:58.569Z,1016.91
2018-06-28T03:39:00.393Z,1016.88
2018-06-28T03:40:03.285Z,1016.90
2018-06-28T03:41:03.193Z,1016.88
2018-06-28T03:41:59.386Z,1016.86
2018-06-28T03:42:58.381Z,1016.86
2018-06-28T03:44:08.812Z,1016.87
2018-06-28T03:45:12.768Z,1016.88
2018-06-28T03:45:58.859Z,1016.88
2018-06-28T03:47:02.842Z,1016.86
2018-06-28T03:47:58.358Z,1016.88
2018-06-28T03:48:59.788Z,1016.86
2018-06-28T03:49:58.333Z,1016.89
2018-06-28T03:50:59.705Z,1016.85
2018-06-28T03:51:58.247Z,1016.87
2018-06-28T03:53:00.771Z,1016.87
2018-06-28T03:53:58.284Z,1016.90
2018-06-28T03:54:58.322Z,1016.91
2018-06-28T03:56:00.897Z,1016.90
2018-06-28T03:56:58.279Z,1016.89
2018-06-28T04:07:49.499Z,1016.89
2018-06-28T04:08:18.010Z,1016.89
2018-06-28T04:16:47.899Z,1016.78
2018-06-28T04:17:28.369Z,1016.80
2018-06-28T04:21:43.543Z,1016.78
2018-06-28T04:22:33.912Z,1016.76
2018-06-28T04:28:19.084Z,1016.70
2018-06-28T04:28:59.198Z,1016.68
2018-06-28T04:39:57.368Z,1016.60
2018-06-28T04:42:57.872Z,1016.57
2018-06-28T04:44:12.029Z,1016.59
2018-06-28T04:44:57.141Z,1016.60
2018-06-28T04:47:01.933Z,1016.55
2018-06-28T04:48:00.034Z,1016.51
2018-06-28T04:48:57.300Z,1016.53
2018-06-28T04:49:57.472Z,1016.52
2018-06-28T04:51:02.010Z,1016.50
2018-06-28T04:51:57.996Z,1016.51
2018-06-28T04:53:07.949Z,1016.51
2018-06-28T04:53:57.244Z,1016.53
2018-06-28T04:54:57.805Z,1016.52
2018-06-28T04:56:12.035Z,1016.55
2018-06-28T04:56:57.210Z,1016.58
2018-06-28T04:57:57.177Z,1016.57
2018-06-28T05:00:07.994Z,1016.60
2018-06-28T05:00:57.998Z,1016.61
2018-06-28T05:01:57.134Z,1016.59
2018-06-28T05:02:57.159Z,1016.59
2018-06-28T05:03:57.750Z,1016.59
2018-06-28T05:04:57.177Z,1016.57
2018-06-28T05:05:57.215Z,1016.56
2018-06-28T05:07:19.991Z,1016.55
2018-06-28T05:07:57.086Z,1016.55
2018-06-28T05:08:57.131Z,1016.53
2018-06-28T05:09:58.942Z,1016.54
2018-06-28T05:10:59.022Z,1016.50
2018-06-28T05:11:57.071Z,1016.48
2018-06-28T05:13:18.095Z,1016.51
2018-06-28T05:13:57.141Z,1016.46
2018-06-28T05:15:01.996Z,1016.46
2018-06-28T05:15:57.136Z,1016.47
2018-06-28T05:17:02.066Z,1016.52
2018-06-28T05:17:57.097Z,1016.50
2018-06-28T05:19:01.917Z,1016.48
2018-06-28T05:20:11.999Z,1016.51
2018-06-28T05:20:57.063Z,1016.54
2018-06-28T05:21:57.034Z,1016.48
2018-06-28T05:23:02.009Z,1016.48
2018-06-28T05:24:18.020Z,1016.48
2018-06-28T05:24:57.020Z,1016.45
2018-06-28T05:25:58.062Z,1016.43
2018-06-28T07:57:37.115Z,1015.16
